createdAt,value
2017-11-07T00:00:12.440Z,16.43
2017-11-07T00:05:15.020Z,17.10
2017-11-07T00:10:17.576Z,11.97
2017-11-07T00:15:20.126Z,18.67
2017-11-07T00:20:22.708Z,13.23
2017-11-07T00:25:25.272Z,15.73
2017-11-07T00:30:27.842Z,11.50
2017-11-07T00:35:31.151Z,12.60
2017-11-07T00:40:33.705Z,13.10
2017-11-07T00:45:36.265Z,14.53
2017-11-07T00:50:38.822Z,10.40
2017-11-07T00:55:41.385Z,10.63
2017-11-07T01:00:43.936Z,12.37
2017-11-07T01:05:46.485Z,10.90
2017-11-07T01:10:49.052Z,11.20
2017-11-07T01:15:51.611Z,13.10
2017-11-07T01:20:54.928Z,14.27
2017-11-07T01:25:58.260Z,12.40
2017-11-07T01:31:00.873Z,11.33
2017-11-07T01:36:03.430Z,15.23
2017-11-07T01:41:06.781Z,16.60
2017-11-07T01:46:09.323Z,17.70
2017-11-07T01:51:11.912Z,19.37
2017-11-07T01:56:14.478Z,17.07
2017-11-07T02:01:17.024Z,20.03
2017-11-07T02:06:19.575Z,16.60
2017-11-07T02:11:22.146Z,16.37
2017-11-07T02:16:24.690Z,14.97
2017-11-07T02:21:27.284Z,20.50
2017-11-07T02:26:29.831Z,17.53
2017-11-07T02:31:32.398Z,18.47
2017-11-07T02:36:34.955Z,18.20
2017-11-07T02:41:37.536Z,13.23
2017-11-07T02:46:40.164Z,19.30
2017-11-07T02:51:43.471Z,17.23
2017-11-07T02:56:46.787Z,15.47
2017-11-07T03:01:50.134Z,13.80
2017-11-07T03:06:53.448Z,17.30
2017-11-07T03:11:55.979Z,16.30
2017-11-07T03:16:58.516Z,16.50
2017-11-07T03:22:01.829Z,13.07
2017-11-07T03:27:04.396Z,13.50
2017-11-07T03:32:06.954Z,11.80
2017-11-07T03:37:09.499Z,13.87
2017-11-07T03:42:12.047Z,12.07
2017-11-07T03:47:15.371Z,9.70
2017-11-07T03:52:17.929Z,10.27
2017-11-07T03:57:20.489Z,12.83
2017-11-07T04:02:23.067Z,11.50
2017-11-07T04:07:25.653Z,9.73
2017-11-07T04:12:28.245Z,9.47
2017-11-07T04:17:30.800Z,10.10
2017-11-07T04:22:33.346Z,9.67
2017-11-07T04:27:35.911Z,9.93
2017-11-07T04:32:38.480Z,8.73
2017-11-07T04:37:41.037Z,9.77
2017-11-07T04:42:44.394Z,7.10
2017-11-07T04:47:47.168Z,7.60
2017-11-07T04:52:49.721Z,9.53
2017-11-07T04:57:52.296Z,8.80
2017-11-07T05:02:55.177Z,11.27
2017-11-07T05:07:57.775Z,7.23
2017-11-07T05:13:00.321Z,7.00
2017-11-07T05:18:02.876Z,8.63
2017-11-07T05:23:05.416Z,7.93
2017-11-07T05:28:07.974Z,8.43
2017-11-07T05:33:10.528Z,8.10
2017-11-07T05:38:13.077Z,7.13
2017-11-07T05:43:16.421Z,7.20
2017-11-07T05:48:19.019Z,9.73
2017-11-07T05:53:21.576Z,8.13
2017-11-07T05:58:24.127Z,7.13
2017-11-07T06:03:26.681Z,9.40
2017-11-07T06:08:29.235Z,9.63
2017-11-07T06:13:32.040Z,13.07
2017-11-07T06:18:34.631Z,10.50
2017-11-07T06:23:37.183Z,9.30
2017-11-07T06:28:39.731Z,11.07
2017-11-07T06:33:42.277Z,16.37
2017-11-07T06:38:44.840Z,13.53
2017-11-07T06:43:47.379Z,14.63
2017-11-07T06:48:49.948Z,12.70
2017-11-07T06:53:52.504Z,15.57
2017-11-07T06:58:55.056Z,16.43
2017-11-07T07:03:57.631Z,14.13
2017-11-07T07:09:00.212Z,14.30
2017-11-07T07:14:02.755Z,15.47
2017-11-07T07:19:06.085Z,18.87
2017-11-07T07:24:08.677Z,18.37
2017-11-07T07:29:11.231Z,18.27
2017-11-07T07:34:13.796Z,17.80
2017-11-07T07:39:16.356Z,21.60
2017-11-07T07:44:18.928Z,18.83
2017-11-07T07:49:21.529Z,25.40
2017-11-07T07:54:24.103Z,20.23
2017-11-07T07:59:26.709Z,22.50
2017-11-07T08:04:29.302Z,20.93
2017-11-07T08:09:31.855Z,20.07
2017-11-07T08:14:35.143Z,26.40
2017-11-07T08:19:37.719Z,20.37
2017-11-07T08:24:40.274Z,24.33
2017-11-07T08:29:42.843Z,19.73
2017-11-07T08:34:45.417Z,20.00
2017-11-07T08:39:48.751Z,20.40
2017-11-07T08:44:52.084Z,22.83
2017-11-07T08:49:55.405Z,22.80
2017-11-07T08:54:57.954Z,24.53
2017-11-07T09:00:00.581Z,20.30
2017-11-07T09:05:03.169Z,23.83
2017-11-07T09:10:05.757Z,22.53
2017-11-07T09:15:08.429Z,20.00
2017-11-07T09:20:11.035Z,21.33
2017-11-07T09:25:13.603Z,22.40
2017-11-07T09:30:16.144Z,26.80
2017-11-07T09:35:18.704Z,27.40
2017-11-07T09:40:21.266Z,26.83
2017-11-07T09:45:23.853Z,24.10
2017-11-07T09:50:27.178Z,35.70
2017-11-07T09:55:29.740Z,26.83
2017-11-07T10:00:32.290Z,26.70
2017-11-07T10:05:34.857Z,29.23
2017-11-07T10:10:37.428Z,34.53
2017-11-07T10:15:39.980Z,34.53
2017-11-07T10:20:42.575Z,34.60
2017-11-07T10:25:45.150Z,27.00
2017-11-07T10:30:47.711Z,34.13
2017-11-07T10:35:50.308Z,29.33
2017-11-07T10:40:52.897Z,27.03
2017-11-07T10:45:55.456Z,28.63
2017-11-07T10:50:58.047Z,33.30
2017-11-07T10:56:00.609Z,27.73
2017-11-07T11:01:03.943Z,28.53
2017-11-07T11:06:06.515Z,37.00
2017-11-07T11:11:09.073Z,31.03
2017-11-07T11:16:11.648Z,24.33
2017-11-07T11:21:14.229Z,32.80
2017-11-07T11:26:17.563Z,30.20
2017-11-07T11:31:20.200Z,25.50
2017-11-07T11:36:22.795Z,30.43
2017-11-07T11:41:25.364Z,31.37
2017-11-07T11:46:27.940Z,30.03
2017-11-07T11:51:31.279Z,30.63
2017-11-07T11:56:33.839Z,30.90
2017-11-07T12:01:36.405Z,30.63
2017-11-07T12:06:38.966Z,26.33
2017-11-07T12:11:41.582Z,30.20
2017-11-07T12:16:44.139Z,28.80
2017-11-07T12:21:46.711Z,28.33
2017-11-07T12:26:49.286Z,30.57
2017-11-07T12:31:51.872Z,37.40
2017-11-07T12:36:54.444Z,28.33
2017-11-07T12:41:57.009Z,31.63
2017-11-07T12:46:59.560Z,39.80
2017-11-07T12:52:02.104Z,38.67
2017-11-07T12:57:04.687Z,33.10
2017-11-07T13:02:07.232Z,31.07
2017-11-07T13:07:09.797Z,33.87
2017-11-07T13:12:12.373Z,31.20
2017-11-07T13:17:14.941Z,29.50
2017-11-07T13:22:17.510Z,35.27
2017-11-07T13:27:20.059Z,31.37
2017-11-07T13:32:22.622Z,31.30
2017-11-07T13:37:25.192Z,30.53
2017-11-07T13:42:27.790Z,35.13
2017-11-07T13:47:30.359Z,32.13
2017-11-07T13:52:32.920Z,37.13
2017-11-07T13:57:35.487Z,41.60
2017-11-07T14:02:38.152Z,39.13
2017-11-07T14:07:40.716Z,36.40
2017-11-07T14:12:43.292Z,33.17
2017-11-07T14:17:45.875Z,35.97
2017-11-07T14:22:48.438Z,34.23
2017-11-07T14:27:51.014Z,35.80
2017-11-07T14:32:53.612Z,38.63
2017-11-07T14:37:56.185Z,38.30
2017-11-07T14:42:58.740Z,37.80
2017-11-07T14:48:01.303Z,40.00
2017-11-07T14:53:03.862Z,38.63
2017-11-07T14:58:07.188Z,39.77
2017-11-07T15:03:09.737Z,41.30
2017-11-07T15:08:12.330Z,38.87
2017-11-07T15:13:14.925Z,41.57
2017-11-07T15:18:17.476Z,44.43
2017-11-07T15:23:20.810Z,41.10
2017-11-07T15:28:23.489Z,39.67
2017-11-07T15:33:26.230Z,39.83
2017-11-07T15:38:28.773Z,43.10
2017-11-07T15:43:31.337Z,44.07
2017-11-07T15:48:33.916Z,45.73
2017-11-07T15:53:36.472Z,38.23
2017-11-07T15:58:39.028Z,47.13
2017-11-07T16:03:41.690Z,46.33
2017-11-07T16:08:44.275Z,42.63
2017-11-07T16:13:46.821Z,45.93
2017-11-07T16:18:49.393Z,42.70
2017-11-07T16:23:51.992Z,47.90
2017-11-07T16:28:55.364Z,56.77
2017-11-07T16:33:57.958Z,49.00
2017-11-07T16:39:00.535Z,40.23
2017-11-07T16:44:03.092Z,46.93
2017-11-07T16:49:05.677Z,51.07
2017-11-07T16:54:08.244Z,48.60
2017-11-07T16:59:11.345Z,42.57
2017-11-07T17:04:13.914Z,47.83
2017-11-07T17:09:16.455Z,56.43
2017-11-07T17:14:19.007Z,43.97
2017-11-07T17:19:21.586Z,40.37
2017-11-07T17:24:24.229Z,43.73
2017-11-07T17:29:27.597Z,51.63
2017-11-07T17:34:30.173Z,45.93
2017-11-07T17:39:32.788Z,49.43
2017-11-07T17:44:36.104Z,49.40
2017-11-07T17:49:38.731Z,45.13
2017-11-07T17:54:41.384Z,50.53
2017-11-07T17:59:44.149Z,47.37
2017-11-07T18:04:46.724Z,51.33
2017-11-07T18:09:49.308Z,42.80
2017-11-07T18:14:51.856Z,53.97
2017-11-07T18:19:54.478Z,51.70
2017-11-07T18:24:57.069Z,44.73
2017-11-07T18:29:59.770Z,50.43
2017-11-07T18:35:03.203Z,47.30
2017-11-07T18:40:05.892Z,47.93
2017-11-07T18:45:09.302Z,50.63
2017-11-07T18:50:12.868Z,44.03
2017-11-07T18:55:15.578Z,49.33
2017-11-07T19:00:18.273Z,55.13
2017-11-07T19:05:20.877Z,64.97
2017-11-07T19:10:23.452Z,53.87
2017-11-07T19:15:26.111Z,53.50
2017-11-07T19:20:28.684Z,54.50
2017-11-07T19:25:32.026Z,55.00
2017-11-07T19:30:34.644Z,50.33
2017-11-07T19:35:37.269Z,46.37
2017-11-07T19:40:40.631Z,49.93
2017-11-07T19:45:43.342Z,45.87
2017-11-07T19:50:46.006Z,48.10
2017-11-07T19:55:48.711Z,54.07
2017-11-07T20:00:51.417Z,44.10
2017-11-07T20:05:54.000Z,48.87
2017-11-07T20:10:57.370Z,44.13
2017-11-07T20:16:00.004Z,45.20
2017-11-07T20:21:02.580Z,46.07
2017-11-07T20:26:05.188Z,45.47
2017-11-07T20:31:07.814Z,40.80
2017-11-07T20:36:11.182Z,44.77
2017-11-07T20:41:13.811Z,44.20
2017-11-07T20:46:16.405Z,47.50
2017-11-07T20:51:19.006Z,47.23
2017-11-07T20:56:21.636Z,50.97
2017-11-07T21:01:24.258Z,54.60
2017-11-07T21:06:26.832Z,52.80
2017-11-07T21:11:29.450Z,40.70
2017-11-07T21:16:32.809Z,53.00
2017-11-07T21:21:38.268Z,54.97
2017-11-07T21:26:40.845Z,51.77
2017-11-07T21:31:43.438Z,58.00
2017-11-07T21:36:46.016Z,52.97
2017-11-07T21:41:48.665Z,61.40
2017-11-07T21:46:51.241Z,61.80
2017-11-07T21:51:53.869Z,53.30
2017-11-07T21:56:56.442Z,49.23
2017-11-07T22:01:59.122Z,57.63
2017-11-07T22:07:01.703Z,47.07
2017-11-07T22:12:04.315Z,57.40
2017-11-07T22:17:09.884Z,56.63
2017-11-07T22:22:13.250Z,47.80
2017-11-07T22:27:15.817Z,58.13
2017-11-07T22:32:18.383Z,47.73
2017-11-07T22:37:20.987Z,52.57
2017-11-07T22:42:23.597Z,63.60
2017-11-07T22:47:26.229Z,51.83
2017-11-07T22:52:29.592Z,42.23
2017-11-07T22:57:32.179Z,55.90
2017-11-07T23:02:34.720Z,53.07
2017-11-07T23:07:37.307Z,56.67
2017-11-07T23:12:40.040Z,57.23
2017-11-07T23:17:42.588Z,62.27
2017-11-07T23:22:45.154Z,51.83
2017-11-07T23:27:48.529Z,56.90
2017-11-07T23:32:51.073Z,60.10
2017-11-07T23:37:53.619Z,55.53
2017-11-07T23:42:56.201Z,62.00
2017-11-07T23:47:58.782Z,58.50
2017-11-07T23:53:01.333Z,59.37
2017-11-07T23:58:03.894Z,57.10
